createdAt,value
2022-10-24T00:07:27.514Z,98658.05
2022-10-24T00:17:54.925Z,98685.08
2022-10-24T00:28:22.267Z,98666.02
2022-10-24T00:38:51.142Z,98658.14
2022-10-24T00:49:22.685Z,98680.64
2022-10-24T00:59:54.360Z,98668.77
2022-10-24T01:21:24.886Z,98655.30
2022-10-24T01:31:56.949Z,98642.84
2022-10-24T01:42:27.185Z,98638.36
2022-10-24T01:52:58.418Z,98635.55
2022-10-24T02:03:32.441Z,98639.98
2022-10-24T02:14:04.281Z,98647.02
2022-10-24T02:24:38.350Z,98652.45
2022-10-24T02:35:08.336Z,98639.83
2022-10-24T02:45:37.411Z,98624.03
2022-10-24T02:56:04.860Z,98623.86
2022-10-24T03:06:32.214Z,98627.73
2022-10-24T03:16:59.568Z,98642.38
2022-10-24T03:27:26.878Z,98640.51
2022-10-24T03:37:54.132Z,98628.38
2022-10-24T03:48:21.397Z,98622.40
2022-10-24T03:58:48.716Z,98604.70
2022-10-24T04:09:16.050Z,98615.59
2022-10-24T04:19:43.605Z,98620.71
2022-10-24T04:30:16.535Z,98633.18
2022-10-24T04:40:46.115Z,98618.36
2022-10-24T04:51:16.268Z,98615.92
2022-10-24T05:01:45.965Z,98620.27
2022-10-24T05:12:14.108Z,98612.52
2022-10-24T05:22:41.674Z,98605.21
2022-10-24T05:33:09.150Z,98611.41
2022-10-24T05:43:36.502Z,98615.63
2022-10-24T05:54:03.977Z,98621.45
2022-10-24T06:04:31.406Z,98636.41
2022-10-24T06:15:00.758Z,98651.27
2022-10-24T06:25:28.118Z,98658.98
2022-10-24T06:35:55.483Z,98661.95
2022-10-24T06:46:24.310Z,98651.86
2022-10-24T06:56:51.629Z,98653.28
2022-10-24T07:07:20.845Z,98647.85
2022-10-24T07:17:48.374Z,98642.57
2022-10-24T07:28:15.779Z,98650.02
2022-10-24T07:38:43.129Z,98651.80
2022-10-24T07:49:10.874Z,98648.89
2022-10-24T07:59:42.100Z,98626.67
2022-10-24T08:10:14.082Z,98593.80
2022-10-24T08:20:41.339Z,98605.93
2022-10-24T08:31:12.406Z,98606.56
2022-10-24T08:41:43.790Z,98574.58
2022-10-24T08:52:23.054Z,98583.88
2022-10-24T09:03:02.718Z,98600.06
2022-10-24T09:13:32.154Z,98590.48
2022-10-24T09:23:59.707Z,98591.13
2022-10-24T09:34:27.230Z,98600.48
2022-10-24T09:44:58.634Z,98590.82
2022-10-24T09:55:28.817Z,98603.35
2022-10-24T10:05:58.022Z,98585.89
2022-10-24T10:16:28.215Z,98568.09
2022-10-24T10:26:55.566Z,98591.72
2022-10-24T10:37:26.951Z,98598.37
2022-10-24T10:48:04.877Z,98598.70
2022-10-24T10:58:45.545Z,98580.54
2022-10-24T11:09:27.523Z,98568.52
2022-10-24T11:20:04.982Z,98571.18
2022-10-24T11:30:42.420Z,98577.11
2022-10-24T11:41:21.109Z,98586.36
2022-10-24T11:51:56.219Z,98585.96
2022-10-24T12:02:45.656Z,98590.45
2022-10-24T12:13:32.780Z,98573.94
2022-10-24T12:24:02.534Z,98565.96
2022-10-24T12:34:49.086Z,98553.32
2022-10-24T12:45:33.601Z,98548.30
2022-10-24T13:07:18.149Z,98532.05
2022-10-24T13:17:51.274Z,98537.08
2022-10-24T13:28:43.509Z,98539.64
2022-10-24T13:39:18.109Z,98539.04
2022-10-24T13:49:53.870Z,98527.89
2022-10-24T14:00:25.552Z,98527.83
2022-10-24T14:10:54.860Z,98529.58
2022-10-24T14:21:23.774Z,98517.63
2022-10-24T14:31:57.819Z,98522.05
2022-10-24T14:42:25.863Z,98538.52
2022-10-24T14:52:53.218Z,98533.77
2022-10-24T15:03:19.200Z,98527.34
2022-10-24T15:14:05.719Z,98526.63
2022-10-24T15:24:33.980Z,98529.89
2022-10-24T15:35:01.368Z,98520.82
2022-10-24T15:45:29.369Z,98533.45
2022-10-24T15:55:57.127Z,98529.73
2022-10-24T16:06:22.921Z,98533.10
2022-10-24T16:16:50.573Z,98534.83
2022-10-24T16:27:17.841Z,98538.29
2022-10-24T16:37:45.467Z,98533.70
2022-10-24T16:48:13.773Z,98541.73
2022-10-24T16:58:41.498Z,98540.64
2022-10-24T17:09:08.861Z,98548.85
2022-10-24T17:19:36.868Z,98545.56
2022-10-24T17:30:04.742Z,98540.45
2022-10-24T17:40:40.677Z,98547.97
2022-10-24T17:51:10.749Z,98548.26
2022-10-24T18:01:38.319Z,98550.66
2022-10-24T18:12:04.267Z,98546.89
2022-10-24T18:22:35.014Z,98542.20
2022-10-24T18:33:02.686Z,98548.91
2022-10-24T18:43:30.429Z,98545.93
2022-10-24T18:53:58.932Z,98547.55
2022-10-24T19:04:28.127Z,98547.84
2022-10-24T19:14:56.048Z,98550.27
2022-10-24T19:25:23.390Z,98552.42
2022-10-24T19:35:50.685Z,98558.48
2022-10-24T19:46:20.144Z,98559.46
2022-10-24T19:56:49.404Z,98565.23
2022-10-24T20:07:17.763Z,98571.01
2022-10-24T20:17:45.204Z,98570.89
2022-10-24T20:28:12.527Z,98566.23
2022-10-24T20:38:39.787Z,98565.09
2022-10-24T20:49:08.000Z,98562.86
2022-10-24T20:59:33.856Z,98562.42
2022-10-24T21:10:01.206Z,98564.75
2022-10-24T21:20:28.717Z,98561.56
2022-10-24T21:30:55.981Z,98568.73
2022-10-24T21:41:24.725Z,98569.52
2022-10-24T21:51:52.409Z,98574.46
2022-10-24T22:02:18.657Z,98569.80
2022-10-24T22:12:46.003Z,98580.14
2022-10-24T22:23:13.526Z,98583.03
2022-10-24T22:33:43.745Z,98581.73
2022-10-24T22:44:13.053Z,98577.27
2022-10-24T22:54:41.443Z,98564.94
2022-10-24T23:05:13.423Z,98559.88
2022-10-24T23:15:41.562Z,98555.05
2022-10-24T23:26:19.904Z,98555.20
2022-10-24T23:36:48.123Z,98555.98
2022-10-24T23:47:30.450Z,98563.73
2022-10-24T23:57:57.831Z,98564.15
